createdAt,value
2022-11-05T00:01:17.819Z,99462.00
2022-11-05T00:04:04.317Z,99463.00
2022-11-05T00:06:50.096Z,99455.00
2022-11-05T00:09:36.977Z,99458.00
2022-11-05T00:12:31.103Z,99467.00
2022-11-05T00:15:17.478Z,99471.00
2022-11-05T00:17:45.462Z,99468.00
2022-11-05T00:20:16.433Z,99462.00
2022-11-05T00:23:02.345Z,99457.00
2022-11-05T00:25:30.860Z,99468.00
2022-11-05T00:28:03.133Z,99466.00
2022-11-05T00:30:31.184Z,99472.00
2022-11-05T00:33:03.987Z,99468.00
2022-11-05T00:35:31.265Z,99469.00
2022-11-05T00:37:58.629Z,99468.00
2022-11-05T00:40:26.350Z,99468.00
2022-11-05T00:43:13.109Z,99462.00
2022-11-05T00:45:41.750Z,99457.00
2022-11-05T00:48:28.234Z,99451.00
2022-11-05T00:50:57.094Z,99447.00
2022-11-05T00:53:26.068Z,99457.00
2022-11-05T01:09:03.021Z,99451.00
2022-11-05T01:11:33.373Z,99450.00
2022-11-05T01:14:11.443Z,99455.00
2022-11-05T01:16:40.168Z,99455.00
2022-11-05T01:19:10.364Z,99454.00
2022-11-05T01:21:37.843Z,99461.00
2022-11-05T01:24:05.430Z,99453.00
2022-11-05T01:26:32.354Z,99452.00
2022-11-05T01:29:02.439Z,99450.00
2022-11-05T01:31:29.532Z,99452.00
2022-11-05T01:33:56.506Z,99446.00
2022-11-05T01:36:23.437Z,99445.00
2022-11-05T01:38:52.521Z,99449.00
2022-11-05T01:41:19.521Z,99445.00
2022-11-05T01:43:57.628Z,99425.00
2022-11-05T01:46:38.768Z,99440.00
2022-11-05T01:49:33.266Z,99437.00
2022-11-05T01:52:04.706Z,99440.00
2022-11-05T01:54:34.792Z,99445.00
2022-11-05T01:57:09.821Z,99433.00
2022-11-05T01:59:46.888Z,99438.00
2022-11-05T02:02:13.940Z,99434.00
2022-11-05T02:04:58.807Z,99438.00
2022-11-05T02:07:28.302Z,99443.00
2022-11-05T02:10:18.083Z,99433.00
2022-11-05T02:12:48.426Z,99404.00
2022-11-05T02:15:43.465Z,99433.00
2022-11-05T02:18:44.014Z,99432.00
2022-11-05T02:22:15.330Z,99437.00
2022-11-05T02:25:25.894Z,99436.00
2022-11-05T02:28:23.671Z,99436.00
2022-11-05T02:31:15.236Z,99446.00
2022-11-05T02:34:20.690Z,99453.00
2022-11-05T02:37:02.451Z,99452.00
2022-11-05T02:39:56.348Z,99457.00
2022-11-05T02:42:56.205Z,99455.00
2022-11-05T02:46:19.984Z,99444.00
2022-11-05T02:49:04.283Z,99444.00
2022-11-05T02:51:53.437Z,99450.00
2022-11-05T02:55:02.548Z,99456.00
2022-11-05T02:57:30.757Z,99455.00
2022-11-05T03:00:08.485Z,99457.00
2022-11-05T03:02:35.825Z,99456.00
2022-11-05T03:05:04.475Z,99454.00
2022-11-05T03:07:53.037Z,99459.00
2022-11-05T03:11:00.110Z,99462.00
2022-11-05T03:13:59.020Z,99469.00
2022-11-05T03:17:08.016Z,99462.00
2022-11-05T03:20:28.221Z,99457.00
2022-11-05T03:23:20.950Z,99459.00
2022-11-05T03:26:01.962Z,99458.00
2022-11-05T03:28:33.028Z,99456.00
2022-11-05T03:31:02.814Z,99452.00
2022-11-05T03:33:34.628Z,99448.00
2022-11-05T03:36:09.648Z,99442.00
2022-11-05T03:38:42.593Z,99455.00
2022-11-05T03:41:15.599Z,99427.00
2022-11-05T03:43:50.303Z,99423.00
2022-11-05T03:46:33.048Z,99451.00
2022-11-05T03:49:04.743Z,99448.00
2022-11-05T03:51:49.794Z,99449.00
2022-11-05T03:54:17.011Z,99460.00
2022-11-05T03:57:09.624Z,99461.00
2022-11-05T03:59:46.932Z,99461.00
2022-11-05T04:02:17.876Z,99449.00
2022-11-05T04:04:46.370Z,99454.00
2022-11-05T04:07:39.929Z,99451.00
2022-11-05T04:10:25.629Z,99467.00
2022-11-05T04:13:11.348Z,99469.00
2022-11-05T04:16:01.655Z,99445.00
2022-11-05T04:18:28.663Z,99473.00
2022-11-05T04:21:14.019Z,99467.00
2022-11-05T04:23:59.536Z,99483.00
2022-11-05T04:26:26.464Z,99470.00
2022-11-05T04:29:12.098Z,99471.00
2022-11-05T04:31:39.432Z,99401.00
2022-11-05T04:34:06.348Z,99477.00
2022-11-05T04:36:33.361Z,99479.00
2022-11-05T04:39:00.371Z,99484.00
2022-11-05T04:41:27.358Z,99484.00
2022-11-05T04:43:54.319Z,99486.00
2022-11-05T04:46:22.575Z,99486.00
2022-11-05T04:48:49.513Z,99498.00
2022-11-05T04:51:16.887Z,99492.00
2022-11-05T04:53:43.783Z,99508.00
2022-11-05T04:56:14.922Z,99506.00
2022-11-05T04:58:42.872Z,99496.00
2022-11-05T05:01:15.037Z,99506.00
2022-11-05T05:03:42.681Z,99496.00
2022-11-05T05:06:10.450Z,99490.00
2022-11-05T05:08:37.474Z,99506.00
2022-11-05T05:11:08.412Z,99505.00
2022-11-05T05:13:35.765Z,99507.00
2022-11-05T05:16:08.296Z,99512.00
2022-11-05T05:18:35.714Z,99517.00
2022-11-05T05:21:21.710Z,99512.00
2022-11-05T05:23:48.977Z,99519.00
2022-11-05T05:26:16.845Z,99528.00
2022-11-05T05:28:43.800Z,99524.00
2022-11-05T05:31:10.901Z,99528.00
2022-11-05T05:33:37.837Z,99527.00
2022-11-05T05:36:10.117Z,99537.00
2022-11-05T05:38:38.533Z,99529.00
2022-11-05T05:41:05.761Z,99534.00
2022-11-05T05:43:34.057Z,99538.00
2022-11-05T05:46:11.093Z,99539.00
2022-11-05T05:48:38.498Z,99543.00
2022-11-05T05:51:09.742Z,99545.00
2022-11-05T05:53:38.301Z,99542.00
2022-11-05T05:56:06.394Z,99561.00
2022-11-05T05:58:37.141Z,99562.00
2022-11-05T06:01:07.708Z,99560.00
2022-11-05T06:03:35.012Z,99571.00
2022-11-05T06:06:11.340Z,99572.00
2022-11-05T06:08:38.752Z,99572.00
2022-11-05T06:11:07.024Z,99572.00
2022-11-05T06:13:34.457Z,99556.00
2022-11-05T06:16:03.518Z,99578.00
2022-11-05T06:18:32.326Z,99587.00
2022-11-05T06:21:15.136Z,99583.00
2022-11-05T06:23:44.886Z,99585.00
2022-11-05T06:26:16.577Z,99585.00
2022-11-05T06:28:44.246Z,99575.00
2022-11-05T06:31:13.310Z,99573.00
2022-11-05T06:33:41.027Z,99578.00
2022-11-05T06:36:14.957Z,99584.00
2022-11-05T06:38:42.112Z,99589.00
2022-11-05T06:41:10.646Z,99593.00
2022-11-05T06:43:38.388Z,99606.00
2022-11-05T06:46:05.643Z,99601.00
2022-11-05T06:48:33.058Z,99607.00
2022-11-05T06:51:00.076Z,99622.00
2022-11-05T06:53:27.610Z,99597.00
2022-11-05T06:55:54.620Z,99615.00
2022-11-05T06:58:21.870Z,99619.00
2022-11-05T07:00:52.799Z,99608.00
2022-11-05T07:03:19.734Z,99620.00
2022-11-05T07:05:49.620Z,99626.00
2022-11-05T07:08:17.241Z,99542.00
2022-11-05T07:10:44.392Z,99625.00
2022-11-05T07:13:12.016Z,99645.00
2022-11-05T07:15:39.443Z,99643.00
2022-11-05T07:30:15.560Z,99663.00
2022-11-05T07:32:42.540Z,99663.00
2022-11-05T07:35:10.594Z,99652.00
2022-11-05T07:37:50.302Z,99660.00
2022-11-05T07:40:21.623Z,99647.00
2022-11-05T07:42:54.562Z,99646.00
2022-11-05T07:45:22.405Z,99654.00
2022-11-05T07:47:58.672Z,99660.00
2022-11-05T07:50:30.325Z,99665.00
2022-11-05T07:53:15.187Z,99668.00
2022-11-05T07:55:43.850Z,99664.00
2022-11-05T07:58:11.927Z,99675.00
2022-11-05T08:00:39.177Z,99648.00
2022-11-05T08:03:17.692Z,99687.00
2022-11-05T08:05:47.677Z,99700.00
2022-11-05T08:08:18.339Z,99688.00
2022-11-05T08:10:46.515Z,99687.00
2022-11-05T08:13:14.725Z,99682.00
2022-11-05T08:15:43.269Z,99691.00
2022-11-05T08:18:17.894Z,99696.00
2022-11-05T08:20:46.974Z,99706.00
2022-11-05T08:23:17.175Z,99695.00
2022-11-05T08:25:44.124Z,99700.00
2022-11-05T08:28:13.165Z,99705.00
2022-11-05T08:30:40.328Z,99707.00
2022-11-05T08:33:11.923Z,99691.00
2022-11-05T08:35:40.415Z,99710.00
2022-11-05T08:38:10.469Z,99706.00
2022-11-05T08:40:38.023Z,99707.00
2022-11-05T08:43:07.239Z,99708.00
2022-11-05T08:45:38.177Z,99720.00
2022-11-05T08:48:13.101Z,99715.00
2022-11-05T08:50:40.467Z,99720.00
2022-11-05T08:53:09.271Z,99734.00
2022-11-05T08:55:37.461Z,99740.00
2022-11-05T08:58:12.830Z,99733.00
2022-11-05T09:00:40.781Z,99732.00
2022-11-05T09:03:09.707Z,99735.00
2022-11-05T09:05:40.025Z,99741.00
2022-11-05T09:08:18.993Z,99741.00
2022-11-05T09:10:49.912Z,99755.00
2022-11-05T09:13:19.887Z,99731.00
2022-11-05T09:15:49.363Z,99760.00
2022-11-05T09:18:18.514Z,99766.00
2022-11-05T09:20:45.950Z,99775.00
2022-11-05T09:23:15.210Z,99768.00
2022-11-05T09:25:43.516Z,99764.00
2022-11-05T09:28:22.443Z,99740.00
2022-11-05T09:30:52.348Z,99763.00
2022-11-05T09:33:24.218Z,99759.00
2022-11-05T09:35:53.434Z,99782.00
2022-11-05T09:38:20.780Z,99772.00
2022-11-05T09:41:02.952Z,99787.00
2022-11-05T09:43:49.195Z,99785.00
2022-11-05T09:46:27.123Z,99788.00
2022-11-05T09:49:05.065Z,99799.00
2022-11-05T09:51:33.382Z,99805.00
2022-11-05T09:54:02.155Z,99799.00
2022-11-05T09:56:34.904Z,99808.00
2022-11-05T09:59:27.615Z,99822.00
2022-11-05T10:02:19.898Z,99837.00
2022-11-05T10:04:52.887Z,99820.00
2022-11-05T10:07:26.247Z,99832.00
2022-11-05T10:10:01.358Z,99840.00
2022-11-05T10:12:54.250Z,99848.00
2022-11-05T10:15:39.104Z,99845.00
2022-11-05T10:18:19.320Z,99842.00
2022-11-05T10:20:46.603Z,99852.00
2022-11-05T10:23:16.443Z,99854.00
2022-11-05T10:26:09.581Z,99847.00
2022-11-05T10:28:37.730Z,99851.00
2022-11-05T10:31:09.662Z,99856.00
2022-11-05T10:33:54.671Z,99864.00
2022-11-05T10:36:28.975Z,99878.00
2022-11-05T10:39:17.686Z,99869.00
2022-11-05T10:42:14.948Z,99881.00
2022-11-05T10:44:53.284Z,99882.00
2022-11-05T10:48:21.783Z,99892.00
2022-11-05T10:50:49.282Z,99871.00
2022-11-05T10:53:30.059Z,99903.00
2022-11-05T10:56:01.553Z,99917.00
2022-11-05T10:58:32.650Z,99918.00
2022-11-05T11:01:06.303Z,99917.00
2022-11-05T11:03:51.180Z,99906.00
2022-11-05T11:06:39.722Z,99914.00
2022-11-05T11:09:20.060Z,99919.00
2022-11-05T11:12:13.103Z,99918.00
2022-11-05T11:14:40.261Z,99916.00
2022-11-05T11:17:36.461Z,99920.00
2022-11-05T11:20:32.055Z,99930.00
2022-11-05T11:23:16.374Z,99935.00
2022-11-05T11:25:57.609Z,99938.00
2022-11-05T11:28:35.072Z,99938.00
2022-11-05T11:31:21.702Z,99937.00
2022-11-05T11:34:03.584Z,99900.00
2022-11-05T11:36:44.577Z,99938.00
2022-11-05T11:39:22.186Z,99931.00
2022-11-05T11:42:01.829Z,99915.00
2022-11-05T11:44:42.302Z,99949.00
2022-11-05T11:47:19.797Z,99949.00
2022-11-05T11:49:57.142Z,99956.00
2022-11-05T11:52:34.508Z,99962.00
2022-11-05T11:55:13.484Z,99964.00
2022-11-05T11:58:05.310Z,99962.00
2022-11-05T12:00:41.238Z,99962.00
2022-11-05T12:03:46.762Z,99973.00
2022-11-05T12:06:48.125Z,99975.00
2022-11-05T12:09:49.597Z,99982.00
2022-11-05T12:12:25.082Z,99997.00
2022-11-05T12:15:32.489Z,99994.00
2022-11-05T12:18:10.682Z,99994.00
2022-11-05T12:21:06.172Z,99992.00
2022-11-05T12:23:52.345Z,99995.00
2022-11-05T12:26:34.167Z,100002.00
2022-11-05T12:30:07.517Z,99998.00
2022-11-05T12:32:45.759Z,100008.00
2022-11-05T12:35:47.429Z,99990.00
2022-11-05T12:38:30.430Z,100003.00
2022-11-05T12:41:31.042Z,100003.00
2022-11-05T12:44:33.037Z,100012.00
2022-11-05T12:47:12.031Z,100012.00
2022-11-05T12:49:53.630Z,100009.00
2022-11-05T12:52:27.875Z,100015.00
2022-11-05T12:55:38.083Z,100007.00
2022-11-05T12:58:20.392Z,100007.00
2022-11-05T13:00:58.702Z,100016.00
2022-11-05T13:03:47.548Z,100029.00
2022-11-05T13:06:22.045Z,100019.00
2022-11-05T13:09:03.364Z,100028.00
2022-11-05T13:11:41.998Z,100035.00
2022-11-05T13:14:41.000Z,100038.00
2022-11-05T13:18:01.829Z,100035.00
2022-11-05T13:20:38.632Z,100039.00
2022-11-05T13:23:26.207Z,100045.00
2022-11-05T13:26:41.888Z,100047.00
2022-11-05T13:29:22.291Z,100055.00
2022-11-05T13:32:01.429Z,100051.00
2022-11-05T13:34:33.462Z,100076.00
2022-11-05T13:37:26.116Z,100075.00
2022-11-05T13:39:58.658Z,100081.00
2022-11-05T13:42:56.283Z,100076.00
2022-11-05T13:45:44.887Z,100081.00
2022-11-05T13:48:45.725Z,100085.00
2022-11-05T13:52:10.185Z,100084.00
2022-11-05T13:55:17.989Z,100083.00
2022-11-05T13:58:10.245Z,100093.00
2022-11-05T14:00:58.976Z,100092.00
2022-11-05T14:03:27.472Z,100094.00
2022-11-05T14:06:08.147Z,100087.00
2022-11-05T14:08:46.298Z,100085.00
2022-11-05T14:11:30.819Z,100089.00
2022-11-05T14:14:08.943Z,100100.00
2022-11-05T14:16:55.190Z,100023.00
2022-11-05T14:19:34.950Z,100102.00
2022-11-05T14:22:33.909Z,100107.00
2022-11-05T14:25:29.010Z,100101.00
2022-11-05T14:27:58.717Z,100123.00
2022-11-05T14:30:48.085Z,100130.00
2022-11-05T14:33:31.283Z,100121.00
2022-11-05T14:36:19.694Z,100126.00
2022-11-05T14:39:03.991Z,100133.00
2022-11-05T14:41:31.535Z,100124.00
2022-11-05T14:44:06.421Z,100135.00
2022-11-05T14:46:49.992Z,100137.00
2022-11-05T14:49:27.506Z,100137.00
2022-11-05T14:52:06.272Z,100146.00
2022-11-05T14:54:56.169Z,100148.00
2022-11-05T14:57:44.475Z,100150.00
2022-11-05T15:00:36.665Z,100147.00
2022-11-05T15:03:46.471Z,100154.00
2022-11-05T15:06:37.410Z,100156.00
2022-11-05T15:09:23.228Z,100154.00
2022-11-05T15:12:09.085Z,100171.00
2022-11-05T15:15:05.026Z,100176.00
2022-11-05T15:17:40.827Z,100169.00
2022-11-05T15:20:24.647Z,100158.00
2022-11-05T15:22:59.613Z,100173.00
2022-11-05T15:26:07.737Z,100187.00
2022-11-05T15:28:44.725Z,100178.00
2022-11-05T15:31:14.647Z,100189.00
2022-11-05T15:33:45.343Z,100187.00
2022-11-05T15:36:29.413Z,100180.00
2022-11-05T15:39:27.417Z,100183.00
2022-11-05T15:41:46.605Z,100186.00
2022-11-05T15:44:37.982Z,100160.00
2022-11-05T15:47:36.930Z,100182.00
2022-11-05T15:50:17.773Z,100190.00
2022-11-05T15:52:56.676Z,100178.00
2022-11-05T15:55:29.070Z,100194.00
2022-11-05T15:58:10.047Z,100193.00
2022-11-05T16:00:37.744Z,100192.00
2022-11-05T16:03:32.674Z,100203.00
2022-11-05T16:06:02.356Z,100212.00
2022-11-05T16:08:31.599Z,100214.00
2022-11-05T16:11:01.511Z,100221.00
2022-11-05T16:13:41.867Z,100192.00
2022-11-05T16:16:14.788Z,100224.00
2022-11-05T16:18:44.231Z,100229.00
2022-11-05T16:21:22.869Z,100227.00
2022-11-05T16:23:49.860Z,100234.00
2022-11-05T16:27:02.187Z,100233.00
2022-11-05T16:29:35.997Z,100243.00
2022-11-05T16:32:25.435Z,100215.00
2022-11-05T16:35:03.218Z,100241.00
2022-11-05T16:37:40.056Z,100239.00
2022-11-05T16:40:18.307Z,100252.00
2022-11-05T16:42:48.529Z,100253.00
2022-11-05T16:45:19.184Z,100253.00
2022-11-05T16:47:47.334Z,100246.00
2022-11-05T16:50:26.482Z,100249.00
2022-11-05T16:52:53.837Z,100252.00
2022-11-05T16:55:21.229Z,100261.00
2022-11-05T16:57:59.943Z,100272.00
2022-11-05T17:00:26.992Z,100276.00
2022-11-05T17:02:54.530Z,100280.00
2022-11-05T17:05:30.407Z,100286.00
2022-11-05T17:07:58.541Z,100266.00
2022-11-05T17:10:27.195Z,100293.00
2022-11-05T17:12:54.778Z,100296.00
2022-11-05T17:15:36.575Z,100302.00
2022-11-05T17:18:05.717Z,100289.00
2022-11-05T17:20:48.380Z,100307.00
2022-11-05T17:23:19.379Z,100316.00
2022-11-05T17:25:54.151Z,100316.00
2022-11-05T17:28:23.124Z,100303.00
2022-11-05T17:30:56.743Z,100318.00
2022-11-05T17:33:26.480Z,100317.00
2022-11-05T17:35:54.561Z,100321.00
2022-11-05T17:38:23.216Z,100333.00
2022-11-05T17:40:51.504Z,100339.00
2022-11-05T17:43:20.114Z,100335.00
2022-11-05T17:45:51.853Z,100342.00
2022-11-05T17:48:21.273Z,100344.00
2022-11-05T17:50:50.624Z,100347.00
2022-11-05T17:53:19.451Z,100354.00
2022-11-05T17:55:47.919Z,100340.00
2022-11-05T17:58:15.892Z,100356.00
2022-11-05T18:00:44.734Z,100365.00
2022-11-05T18:03:15.817Z,100354.00
2022-11-05T18:05:43.193Z,100362.00
2022-11-05T18:08:12.600Z,100371.00
2022-11-05T18:10:41.003Z,100366.00
2022-11-05T18:13:08.813Z,100378.00
2022-11-05T18:15:40.943Z,100378.00
2022-11-05T18:18:08.516Z,100379.00
2022-11-05T18:20:37.816Z,100385.00
2022-11-05T18:23:05.488Z,100381.00
2022-11-05T18:25:34.958Z,100383.00
2022-11-05T18:28:06.352Z,100391.00
2022-11-05T18:30:34.268Z,100390.00
2022-11-05T18:33:01.332Z,100387.00
2022-11-05T18:35:28.326Z,100390.00
2022-11-05T18:37:55.386Z,100387.00
2022-11-05T18:40:22.885Z,100400.00
2022-11-05T18:42:50.016Z,100394.00
2022-11-05T18:45:17.567Z,100385.00
2022-11-05T18:47:44.963Z,100390.00
2022-11-05T19:02:48.790Z,100409.00
2022-11-05T19:05:32.200Z,100402.00
2022-11-05T19:07:59.629Z,100395.00
2022-11-05T19:10:27.708Z,100405.00
2022-11-05T19:12:55.158Z,100405.00
2022-11-05T19:15:22.452Z,100399.00
2022-11-05T19:17:49.706Z,100406.00
2022-11-05T19:20:16.908Z,100413.00
2022-11-05T19:22:44.270Z,100408.00
2022-11-05T19:25:11.759Z,100404.00
2022-11-05T19:27:43.684Z,100412.00
2022-11-05T19:30:11.148Z,100409.00
2022-11-05T19:32:38.343Z,100411.00
2022-11-05T19:35:05.727Z,100417.00
2022-11-05T19:37:32.969Z,100418.00
2022-11-05T19:40:00.059Z,100418.00
2022-11-05T19:42:27.400Z,100422.00
2022-11-05T19:44:54.458Z,100417.00
2022-11-05T19:47:21.579Z,100413.00
2022-11-05T19:49:48.665Z,100417.00
2022-11-05T19:52:15.806Z,100417.00
2022-11-05T19:54:42.921Z,100416.00
2022-11-05T19:57:10.121Z,100414.00
2022-11-05T19:59:37.820Z,100416.00
2022-11-05T20:02:06.851Z,100420.00
2022-11-05T20:04:36.594Z,100417.00
2022-11-05T20:07:04.280Z,100418.00
2022-11-05T20:09:32.680Z,100423.00
2022-11-05T20:12:00.690Z,100426.00
2022-11-05T20:14:30.424Z,100429.00
2022-11-05T20:16:59.276Z,100437.00
2022-11-05T20:19:27.820Z,100435.00
2022-11-05T20:21:55.624Z,100432.00
2022-11-05T20:24:25.057Z,100429.00
2022-11-05T20:26:58.837Z,100410.00
2022-11-05T20:29:32.214Z,100429.00
2022-11-05T20:32:05.075Z,100431.00
2022-11-05T20:34:34.215Z,100439.00
2022-11-05T20:37:02.721Z,100434.00
2022-11-05T20:39:30.605Z,100427.00
2022-11-05T20:42:02.338Z,100439.00
2022-11-05T20:44:30.887Z,100440.00
2022-11-05T20:46:58.564Z,100437.00
2022-11-05T20:49:26.349Z,100438.00
2022-11-05T20:51:54.171Z,100444.00
2022-11-05T20:54:26.412Z,100445.00
2022-11-05T20:56:54.466Z,100439.00
2022-11-05T20:59:22.554Z,100433.00
2022-11-05T21:01:52.159Z,100442.00
2022-11-05T21:04:19.829Z,100441.00
2022-11-05T21:06:50.014Z,100434.00
2022-11-05T21:09:17.342Z,100438.00
2022-11-05T21:12:03.413Z,100444.00
2022-11-05T21:14:31.335Z,100440.00
2022-11-05T21:16:58.518Z,100444.00
2022-11-05T21:19:26.721Z,100446.00
2022-11-05T21:21:54.029Z,100454.00
2022-11-05T21:24:21.253Z,100440.00
2022-11-05T21:26:50.203Z,100453.00
2022-11-05T21:29:18.968Z,100440.00
2022-11-05T21:31:47.103Z,100439.00
2022-11-05T21:34:15.021Z,100441.00
2022-11-05T21:36:42.325Z,100442.00
2022-11-05T21:39:13.477Z,100450.00
2022-11-05T21:41:41.184Z,100440.00
2022-11-05T21:44:09.029Z,100451.00
2022-11-05T21:46:37.986Z,100447.00
2022-11-05T21:49:07.067Z,100448.00
2022-11-05T21:51:54.142Z,100446.00
2022-11-05T21:54:39.981Z,100449.00
2022-11-05T21:57:33.915Z,100441.00
2022-11-05T22:00:09.213Z,100435.00
2022-11-05T22:02:36.960Z,100444.00
2022-11-05T22:05:05.886Z,100451.00
2022-11-05T22:07:37.935Z,100427.00
2022-11-05T22:10:14.670Z,100461.00
2022-11-05T22:12:45.655Z,100450.00
2022-11-05T22:15:13.704Z,100453.00
2022-11-05T22:17:47.299Z,100449.00
2022-11-05T22:20:16.373Z,100449.00
2022-11-05T22:34:17.783Z,100466.00
2022-11-05T22:36:45.066Z,100399.00
2022-11-05T22:39:13.228Z,100462.00
2022-11-05T22:41:44.189Z,100462.00
2022-11-05T22:44:14.040Z,100448.00
2022-11-05T22:46:42.432Z,100470.00
2022-11-05T22:49:09.613Z,100471.00
2022-11-05T22:51:39.525Z,100476.00
2022-11-05T22:54:07.714Z,100479.00
2022-11-05T22:56:40.197Z,100483.00
2022-11-05T22:59:12.972Z,100481.00
2022-11-05T23:01:44.150Z,100477.00
2022-11-05T23:04:13.256Z,100459.00
2022-11-05T23:06:59.434Z,100482.00
2022-11-05T23:09:50.303Z,100485.00
2022-11-05T23:12:33.947Z,100487.00
2022-11-05T23:15:03.684Z,100485.00
2022-11-05T23:18:06.590Z,100484.00
2022-11-05T23:20:52.445Z,100470.00
2022-11-05T23:23:37.975Z,100475.00
2022-11-05T23:26:25.090Z,100474.00
2022-11-05T23:28:52.216Z,100470.00
2022-11-05T23:31:38.067Z,100478.00
2022-11-05T23:34:05.097Z,100478.00
2022-11-05T23:36:50.778Z,100473.00
2022-11-05T23:39:17.821Z,100477.00
2022-11-05T23:42:06.783Z,100475.00
2022-11-05T23:44:52.375Z,100477.00
2022-11-05T23:47:37.673Z,100477.00
2022-11-05T23:50:05.398Z,100474.00
2022-11-05T23:52:32.461Z,100478.00
2022-11-05T23:54:59.451Z,100479.00
2022-11-05T23:57:26.603Z,100464.00
2022-11-05T23:59:56.471Z,100479.00
